sensor_id;sensor_type;location;lat;lon;timestamp;temperature;humidity
29571;DHT22;16814;52.118;11.436;2023-03-03T00:01:26;0.00;99.90
29571;DHT22;16814;52.118;11.436;2023-03-03T00:03:53;0.10;99.90
29571;DHT22;16814;52.118;11.436;2023-03-03T00:06:19;0.30;99.90
29571;DHT22;16814;52.118;11.436;2023-03-03T00:08:46;0.20;99.90
29571;DHT22;16814;52.118;11.436;2023-03-03T00:11:12;0.20;99.90
29571;DHT22;16814;52.118;11.436;2023-03-03T00:13:52;0.10;99.90
29571;DHT22;16814;52.118;11.436;2023-03-03T00:16:31;0.30;99.90
29571;DHT22;16814;52.118;11.436;2023-03-03T00:18:58;0.30;99.90
29571;DHT22;16814;52.118;11.436;2023-03-03T00:21:32;0.30;99.90
29571;DHT22;16814;52.118;11.436;2023-03-03T00:24:29;0.20;99.90
29571;DHT22;16814;52.118;11.436;2023-03-03T00:27:09;0.20;99.90
29571;DHT22;16814;52.118;11.436;2023-03-03T00:29:45;0.10;99.90
29571;DHT22;16814;52.118;11.436;2023-03-03T00:32:17;0.20;99.90
29571;DHT22;16814;52.118;11.436;2023-03-03T00:34:46;0.20;99.90
29571;DHT22;16814;52.118;11.436;2023-03-03T00:39:46;0.40;99.90
29571;DHT22;16814;52.118;11.436;2023-03-03T00:42:13;0.30;99.90
29571;DHT22;16814;52.118;11.436;2023-03-03T00:44:47;0.20;99.90
29571;DHT22;16814;52.118;11.436;2023-03-03T00:47:36;0.20;99.90
29571;DHT22;16814;52.118;11.436;2023-03-03T00:52:34;0.10;99.90
29571;DHT22;16814;52.118;11.436;2023-03-03T00:55:00;0.20;99.90
29571;DHT22;16814;52.118;11.436;2023-03-03T00:57:26;0.20;99.90
29571;DHT22;16814;52.118;11.436;2023-03-03T00:59:54;0.20;99.90
29571;DHT22;16814;52.118;11.436;2023-03-03T01:02:20;0.20;99.90
29571;DHT22;16814;52.118;11.436;2023-03-03T01:04:50;0.10;99.90
29571;DHT22;16814;52.118;11.436;2023-03-03T01:07:17;0.10;99.90
29571;DHT22;16814;52.118;11.436;2023-03-03T01:09:44;-0.10;99.90
29571;DHT22;16814;52.118;11.436;2023-03-03T01:12:10;-0.20;99.90
29571;DHT22;16814;52.118;11.436;2023-03-03T01:14:37;-0.20;99.90
29571;DHT22;16814;52.118;11.436;2023-03-03T01:17:03;-0.20;99.90
29571;DHT22;16814;52.118;11.436;2023-03-03T01:19:28;-0.20;99.90
29571;DHT22;16814;52.118;11.436;2023-03-03T01:21:54;-0.20;99.90
29571;DHT22;16814;52.118;11.436;2023-03-03T01:24:20;-0.20;99.90
29571;DHT22;16814;52.118;11.436;2023-03-03T01:26:45;-0.20;99.90
29571;DHT22;16814;52.118;11.436;2023-03-03T01:29:11;0.00;99.90
29571;DHT22;16814;52.118;11.436;2023-03-03T01:31:38;0.00;99.90
29571;DHT22;16814;52.118;11.436;2023-03-03T01:34:04;0.10;99.90
29571;DHT22;16814;52.118;11.436;2023-03-03T01:36:33;0.10;99.90
29571;DHT22;16814;52.118;11.436;2023-03-03T01:38:59;0.10;99.90
29571;DHT22;16814;52.118;11.436;2023-03-03T01:41:29;0.10;99.90
29571;DHT22;16814;52.118;11.436;2023-03-03T01:43:58;0.00;99.90
29571;DHT22;16814;52.118;11.436;2023-03-03T01:49:33;0.10;99.90
29571;DHT22;16814;52.118;11.436;2023-03-03T01:52:03;0.10;99.90
29571;DHT22;16814;52.118;11.436;2023-03-03T01:54:34;-0.10;99.90
29571;DHT22;16814;52.118;11.436;2023-03-03T01:57:05;-0.10;99.90
29571;DHT22;16814;52.118;11.436;2023-03-03T01:59:34;-0.20;99.90
29571;DHT22;16814;52.118;11.436;2023-03-03T02:02:02;-0.10;99.90
29571;DHT22;16814;52.118;11.436;2023-03-03T02:04:28;-0.10;99.90
29571;DHT22;16814;52.118;11.436;2023-03-03T02:07:00;-0.10;99.90
29571;DHT22;16814;52.118;11.436;2023-03-03T02:12:08;0.00;99.90
29571;DHT22;16814;52.118;11.436;2023-03-03T02:14:36;0.10;99.90
29571;DHT22;16814;52.118;11.436;2023-03-03T02:17:01;0.10;99.90
29571;DHT22;16814;52.118;11.436;2023-03-03T02:19:42;0.10;99.90
29571;DHT22;16814;52.118;11.436;2023-03-03T02:22:11;0.20;99.90
29571;DHT22;16814;52.118;11.436;2023-03-03T02:24:45;0.10;99.90
29571;DHT22;16814;52.118;11.436;2023-03-03T02:27:14;0.10;99.90
29571;DHT22;16814;52.118;11.436;2023-03-03T02:29:40;0.20;99.90
29571;DHT22;16814;52.118;11.436;2023-03-03T02:32:05;0.20;99.90
29571;DHT22;16814;52.118;11.436;2023-03-03T02:34:45;0.20;99.90
29571;DHT22;16814;52.118;11.436;2023-03-03T02:37:10;0.30;99.90
29571;DHT22;16814;52.118;11.436;2023-03-03T02:39:36;0.30;99.90
29571;DHT22;16814;52.118;11.436;2023-03-03T02:42:18;0.30;99.90
29571;DHT22;16814;52.118;11.436;2023-03-03T02:44:45;0.50;99.90
29571;DHT22;16814;52.118;11.436;2023-03-03T02:47:10;0.40;99.90
29571;DHT22;16814;52.118;11.436;2023-03-03T02:49:36;0.30;99.90
29571;DHT22;16814;52.118;11.436;2023-03-03T02:52:05;0.40;99.90
29571;DHT22;16814;52.118;11.436;2023-03-03T02:54:31;0.40;99.90
29571;DHT22;16814;52.118;11.436;2023-03-03T02:56:58;0.40;99.90
29571;DHT22;16814;52.118;11.436;2023-03-03T02:59:23;0.30;99.90
29571;DHT22;16814;52.118;11.436;2023-03-03T03:01:49;0.30;99.90
29571;DHT22;16814;52.118;11.436;2023-03-03T03:04:17;0.30;99.90
29571;DHT22;16814;52.118;11.436;2023-03-03T03:06:44;0.20;99.90
29571;DHT22;16814;52.118;11.436;2023-03-03T03:09:11;0.20;99.90
29571;DHT22;16814;52.118;11.436;2023-03-03T03:11:37;0.30;99.90
29571;DHT22;16814;52.118;11.436;2023-03-03T03:14:04;0.30;99.90
29571;DHT22;16814;52.118;11.436;2023-03-03T03:16:30;0.20;99.90
29571;DHT22;16814;52.118;11.436;2023-03-03T03:18:56;0.30;99.90
29571;DHT22;16814;52.118;11.436;2023-03-03T03:21:22;0.40;99.90
29571;DHT22;16814;52.118;11.436;2023-03-03T03:23:48;0.30;99.90
29571;DHT22;16814;52.118;11.436;2023-03-03T03:26:15;0.20;99.90
29571;DHT22;16814;52.118;11.436;2023-03-03T03:28:40;0.20;99.90
29571;DHT22;16814;52.118;11.436;2023-03-03T03:31:08;0.10;99.90
29571;DHT22;16814;52.118;11.436;2023-03-03T03:33:34;0.20;99.90
29571;DHT22;16814;52.118;11.436;2023-03-03T03:36:01;0.40;99.90
29571;DHT22;16814;52.118;11.436;2023-03-03T03:38:27;0.40;99.90
29571;DHT22;16814;52.118;11.436;2023-03-03T03:40:54;0.30;99.90
29571;DHT22;16814;52.118;11.436;2023-03-03T03:43:19;0.40;99.90
29571;DHT22;16814;52.118;11.436;2023-03-03T03:45:45;0.40;99.90
29571;DHT22;16814;52.118;11.436;2023-03-03T03:48:11;0.40;99.90
29571;DHT22;16814;52.118;11.436;2023-03-03T03:50:37;0.40;99.90
29571;DHT22;16814;52.118;11.436;2023-03-03T03:53:04;0.40;99.90
29571;DHT22;16814;52.118;11.436;2023-03-03T03:55:30;0.40;99.90
29571;DHT22;16814;52.118;11.436;2023-03-03T03:57:56;0.40;99.90
29571;DHT22;16814;52.118;11.436;2023-03-03T04:00:22;0.30;99.90
29571;DHT22;16814;52.118;11.436;2023-03-03T04:02:47;0.30;99.90
29571;DHT22;16814;52.118;11.436;2023-03-03T04:05:14;0.20;99.90
29571;DHT22;16814;52.118;11.436;2023-03-03T04:07:39;0.30;99.90
29571;DHT22;16814;52.118;11.436;2023-03-03T04:10:05;0.40;99.90
29571;DHT22;16814;52.118;11.436;2023-03-03T04:12:31;0.40;99.90
29571;DHT22;16814;52.118;11.436;2023-03-03T04:15:04;0.50;99.90
29571;DHT22;16814;52.118;11.436;2023-03-03T04:17:30;0.40;99.90
29571;DHT22;16814;52.118;11.436;2023-03-03T04:19:56;0.40;99.90
29571;DHT22;16814;52.118;11.436;2023-03-03T04:22:21;0.40;99.90
29571;DHT22;16814;52.118;11.436;2023-03-03T04:24:47;0.40;99.90
29571;DHT22;16814;52.118;11.436;2023-03-03T04:27:13;0.40;99.90
29571;DHT22;16814;52.118;11.436;2023-03-03T04:29:40;0.50;99.90
29571;DHT22;16814;52.118;11.436;2023-03-03T04:32:06;0.50;99.90
29571;DHT22;16814;52.118;11.436;2023-03-03T04:34:32;0.50;99.90
29571;DHT22;16814;52.118;11.436;2023-03-03T04:36:58;0.50;99.90
29571;DHT22;16814;52.118;11.436;2023-03-03T04:39:23;0.50;99.90
29571;DHT22;16814;52.118;11.436;2023-03-03T04:41:49;0.50;99.90
29571;DHT22;16814;52.118;11.436;2023-03-03T04:44:14;0.50;99.90
29571;DHT22;16814;52.118;11.436;2023-03-03T04:46:40;0.70;99.90
29571;DHT22;16814;52.118;11.436;2023-03-03T04:49:06;0.60;99.90
29571;DHT22;16814;52.118;11.436;2023-03-03T04:51:33;0.50;99.90
29571;DHT22;16814;52.118;11.436;2023-03-03T04:53:59;0.60;99.90
29571;DHT22;16814;52.118;11.436;2023-03-03T04:56:24;0.60;99.90
29571;DHT22;16814;52.118;11.436;2023-03-03T04:58:53;0.60;99.90
29571;DHT22;16814;52.118;11.436;2023-03-03T05:01:19;0.50;99.90
29571;DHT22;16814;52.118;11.436;2023-03-03T05:03:45;0.50;99.90
29571;DHT22;16814;52.118;11.436;2023-03-03T05:06:10;0.50;99.90
29571;DHT22;16814;52.118;11.436;2023-03-03T05:08:36;0.50;99.90
29571;DHT22;16814;52.118;11.436;2023-03-03T05:11:02;0.50;99.90
29571;DHT22;16814;52.118;11.436;2023-03-03T05:13:28;0.40;99.90
29571;DHT22;16814;52.118;11.436;2023-03-03T05:15:55;0.50;99.90
29571;DHT22;16814;52.118;11.436;2023-03-03T05:18:24;0.50;99.90
29571;DHT22;16814;52.118;11.436;2023-03-03T05:20:50;0.50;99.90
29571;DHT22;16814;52.118;11.436;2023-03-03T05:23:16;0.60;99.90
29571;DHT22;16814;52.118;11.436;2023-03-03T05:25:42;0.60;99.90
29571;DHT22;16814;52.118;11.436;2023-03-03T05:28:10;0.50;99.90
29571;DHT22;16814;52.118;11.436;2023-03-03T05:30:37;0.60;99.90
29571;DHT22;16814;52.118;11.436;2023-03-03T05:33:04;0.60;99.90
29571;DHT22;16814;52.118;11.436;2023-03-03T05:35:31;0.70;99.90
29571;DHT22;16814;52.118;11.436;2023-03-03T05:37:57;0.70;99.90
29571;DHT22;16814;52.118;11.436;2023-03-03T05:40:23;0.70;99.90
29571;DHT22;16814;52.118;11.436;2023-03-03T05:42:49;0.70;99.90
29571;DHT22;16814;52.118;11.436;2023-03-03T05:45:16;0.70;99.90
29571;DHT22;16814;52.118;11.436;2023-03-03T05:47:44;0.60;99.90
29571;DHT22;16814;52.118;11.436;2023-03-03T05:50:13;0.70;99.90
29571;DHT22;16814;52.118;11.436;2023-03-03T05:52:39;0.70;99.90
29571;DHT22;16814;52.118;11.436;2023-03-03T05:55:05;0.80;99.90
29571;DHT22;16814;52.118;11.436;2023-03-03T05:57:30;0.80;99.90
29571;DHT22;16814;52.118;11.436;2023-03-03T05:59:56;0.70;99.90
29571;DHT22;16814;52.118;11.436;2023-03-03T06:02:22;0.70;99.90
29571;DHT22;16814;52.118;11.436;2023-03-03T06:04:47;0.60;99.90
29571;DHT22;16814;52.118;11.436;2023-03-03T06:07:13;0.60;99.90
29571;DHT22;16814;52.118;11.436;2023-03-03T06:09:39;0.70;99.90
29571;DHT22;16814;52.118;11.436;2023-03-03T06:12:04;0.60;99.90
29571;DHT22;16814;52.118;11.436;2023-03-03T06:14:30;0.70;99.90
29571;DHT22;16814;52.118;11.436;2023-03-03T06:16:56;0.60;99.90
29571;DHT22;16814;52.118;11.436;2023-03-03T06:19:22;0.60;99.90
29571;DHT22;16814;52.118;11.436;2023-03-03T06:21:48;0.60;99.90
29571;DHT22;16814;52.118;11.436;2023-03-03T06:24:14;0.60;99.90
29571;DHT22;16814;52.118;11.436;2023-03-03T06:26:40;0.60;99.90
29571;DHT22;16814;52.118;11.436;2023-03-03T06:29:05;0.60;99.90
29571;DHT22;16814;52.118;11.436;2023-03-03T06:31:31;0.70;99.90
29571;DHT22;16814;52.118;11.436;2023-03-03T06:33:57;0.50;99.90
29571;DHT22;16814;52.118;11.436;2023-03-03T06:36:22;0.50;99.90
29571;DHT22;16814;52.118;11.436;2023-03-03T06:38:49;0.50;99.90
29571;DHT22;16814;52.118;11.436;2023-03-03T06:41:15;0.70;99.90
29571;DHT22;16814;52.118;11.436;2023-03-03T06:43:42;0.70;99.90
29571;DHT22;16814;52.118;11.436;2023-03-03T06:46:07;0.70;99.90
29571;DHT22;16814;52.118;11.436;2023-03-03T06:48:33;0.70;99.90
29571;DHT22;16814;52.118;11.436;2023-03-03T06:51:01;0.70;99.90
29571;DHT22;16814;52.118;11.436;2023-03-03T06:53:27;0.80;99.90
29571;DHT22;16814;52.118;11.436;2023-03-03T06:55:54;0.90;99.90
29571;DHT22;16814;52.118;11.436;2023-03-03T06:58:21;0.90;99.90
29571;DHT22;16814;52.118;11.436;2023-03-03T07:00:57;0.80;99.90
29571;DHT22;16814;52.118;11.436;2023-03-03T07:03:25;0.80;99.90
29571;DHT22;16814;52.118;11.436;2023-03-03T07:05:52;0.60;99.90
29571;DHT22;16814;52.118;11.436;2023-03-03T07:08:20;0.70;99.90
29571;DHT22;16814;52.118;11.436;2023-03-03T07:10:47;0.70;99.90
29571;DHT22;16814;52.118;11.436;2023-03-03T07:13:24;0.80;99.90
29571;DHT22;16814;52.118;11.436;2023-03-03T07:15:51;0.80;99.90
29571;DHT22;16814;52.118;11.436;2023-03-03T07:18:35;1.00;99.90
29571;DHT22;16814;52.118;11.436;2023-03-03T07:21:32;0.80;99.90
29571;DHT22;16814;52.118;11.436;2023-03-03T07:24:00;0.80;99.90
29571;DHT22;16814;52.118;11.436;2023-03-03T07:26:45;0.90;99.90
29571;DHT22;16814;52.118;11.436;2023-03-03T07:29:28;0.90;99.90
29571;DHT22;16814;52.118;11.436;2023-03-03T07:31:56;0.90;99.90
29571;DHT22;16814;52.118;11.436;2023-03-03T07:34:26;0.90;99.90
29571;DHT22;16814;52.118;11.436;2023-03-03T07:37:00;0.90;99.90
29571;DHT22;16814;52.118;11.436;2023-03-03T07:39:33;0.90;99.90
29571;DHT22;16814;52.118;11.436;2023-03-03T07:44:37;0.90;99.90
29571;DHT22;16814;52.118;11.436;2023-03-03T07:47:35;0.90;99.90
29571;DHT22;16814;52.118;11.436;2023-03-03T07:50:13;0.90;99.90
29571;DHT22;16814;52.118;11.436;2023-03-03T07:52:43;0.90;99.90
29571;DHT22;16814;52.118;11.436;2023-03-03T07:55:35;1.00;99.90
29571;DHT22;16814;52.118;11.436;2023-03-03T07:58:24;0.90;99.90
29571;DHT22;16814;52.118;11.436;2023-03-03T08:04:22;0.90;99.90
29571;DHT22;16814;52.118;11.436;2023-03-03T08:06:53;1.00;99.90
29571;DHT22;16814;52.118;11.436;2023-03-03T08:11:58;1.00;99.90
29571;DHT22;16814;52.118;11.436;2023-03-03T08:14:27;1.10;99.90
29571;DHT22;16814;52.118;11.436;2023-03-03T08:16:55;1.00;99.90
29571;DHT22;16814;52.118;11.436;2023-03-03T08:19:21;1.10;99.90
29571;DHT22;16814;52.118;11.436;2023-03-03T08:21:47;1.10;99.90
29571;DHT22;16814;52.118;11.436;2023-03-03T08:24:13;1.20;99.90
29571;DHT22;16814;52.118;11.436;2023-03-03T08:26:38;1.20;99.90
29571;DHT22;16814;52.118;11.436;2023-03-03T08:29:04;1.20;99.90
29571;DHT22;16814;52.118;11.436;2023-03-03T08:31:29;1.20;99.90
29571;DHT22;16814;52.118;11.436;2023-03-03T08:33:55;1.20;99.90
29571;DHT22;16814;52.118;11.436;2023-03-03T08:36:21;1.30;99.90
29571;DHT22;16814;52.118;11.436;2023-03-03T08:38:46;1.20;99.90
29571;DHT22;16814;52.118;11.436;2023-03-03T08:41:12;1.40;99.90
29571;DHT22;16814;52.118;11.436;2023-03-03T08:43:38;1.40;99.90
29571;DHT22;16814;52.118;11.436;2023-03-03T08:46:05;1.40;99.90
29571;DHT22;16814;52.118;11.436;2023-03-03T08:48:32;1.50;99.90
29571;DHT22;16814;52.118;11.436;2023-03-03T08:50:58;1.60;99.90
29571;DHT22;16814;52.118;11.436;2023-03-03T08:53:24;1.60;99.90
29571;DHT22;16814;52.118;11.436;2023-03-03T08:55:50;1.70;99.90
29571;DHT22;16814;52.118;11.436;2023-03-03T08:58:16;1.60;99.90
29571;DHT22;16814;52.118;11.436;2023-03-03T09:00:43;1.60;99.90
29571;DHT22;16814;52.118;11.436;2023-03-03T09:03:08;1.60;99.90
29571;DHT22;16814;52.118;11.436;2023-03-03T09:05:35;1.70;99.90
29571;DHT22;16814;52.118;11.436;2023-03-03T09:08:02;1.60;99.90
29571;DHT22;16814;52.118;11.436;2023-03-03T09:10:29;1.70;99.90
29571;DHT22;16814;52.118;11.436;2023-03-03T09:12:57;1.70;99.90
29571;DHT22;16814;52.118;11.436;2023-03-03T09:15:28;1.80;99.90
29571;DHT22;16814;52.118;11.436;2023-03-03T09:17:59;2.10;99.90
29571;DHT22;16814;52.118;11.436;2023-03-03T09:20:46;2.20;99.90
29571;DHT22;16814;52.118;11.436;2023-03-03T09:23:36;2.20;99.90
29571;DHT22;16814;52.118;11.436;2023-03-03T09:26:23;2.30;99.90
29571;DHT22;16814;52.118;11.436;2023-03-03T09:28:55;2.40;99.90
29571;DHT22;16814;52.118;11.436;2023-03-03T09:31:27;2.40;99.90
29571;DHT22;16814;52.118;11.436;2023-03-03T09:33:54;2.50;99.90
29571;DHT22;16814;52.118;11.436;2023-03-03T09:36:37;2.60;99.90
29571;DHT22;16814;52.118;11.436;2023-03-03T09:39:26;2.70;99.90
29571;DHT22;16814;52.118;11.436;2023-03-03T09:45:23;2.70;99.90
29571;DHT22;16814;52.118;11.436;2023-03-03T09:59:00;2.80;99.90
29571;DHT22;16814;52.118;11.436;2023-03-03T10:02:05;2.70;99.90
29571;DHT22;16814;52.118;11.436;2023-03-03T10:13:17;2.80;99.90
29571;DHT22;16814;52.118;11.436;2023-03-03T10:16:11;2.80;99.90
29571;DHT22;16814;52.118;11.436;2023-03-03T10:21:52;2.90;99.90
29571;DHT22;16814;52.118;11.436;2023-03-03T10:24:30;3.00;99.90
29571;DHT22;16814;52.118;11.436;2023-03-03T10:29:34;3.20;99.90
29571;DHT22;16814;52.118;11.436;2023-03-03T10:46:24;3.50;99.90
29571;DHT22;16814;52.118;11.436;2023-03-03T10:49:16;3.60;99.90
29571;DHT22;16814;52.118;11.436;2023-03-03T10:54:43;3.50;99.90
29571;DHT22;16814;52.118;11.436;2023-03-03T10:57:40;3.50;99.90
29571;DHT22;16814;52.118;11.436;2023-03-03T11:11:35;3.90;99.90
29571;DHT22;16814;52.118;11.436;2023-03-03T11:19:52;4.00;99.90
29571;DHT22;16814;52.118;11.436;2023-03-03T11:23:06;4.10;99.90
29571;DHT22;16814;52.118;11.436;2023-03-03T11:25:50;4.20;99.90
29571;DHT22;16814;52.118;11.436;2023-03-03T11:36:16;4.40;99.90
29571;DHT22;16814;52.118;11.436;2023-03-03T11:38:58;4.50;99.90
29571;DHT22;16814;52.118;11.436;2023-03-03T11:44:37;4.50;99.90
29571;DHT22;16814;52.118;11.436;2023-03-03T11:47:29;4.30;99.90
29571;DHT22;16814;52.118;11.436;2023-03-03T11:49:59;4.60;99.90
29571;DHT22;16814;52.118;11.436;2023-03-03T11:53:07;4.70;99.90
29571;DHT22;16814;52.118;11.436;2023-03-03T11:55:37;4.80;99.90
29571;DHT22;16814;52.118;11.436;2023-03-03T12:00:51;5.00;99.90
29571;DHT22;16814;52.118;11.436;2023-03-03T12:03:33;5.00;99.90
29571;DHT22;16814;52.118;11.436;2023-03-03T12:06:23;5.00;99.90
29571;DHT22;16814;52.118;11.436;2023-03-03T12:11:46;4.90;99.90
29571;DHT22;16814;52.118;11.436;2023-03-03T12:16:58;4.90;99.90
29571;DHT22;16814;52.118;11.436;2023-03-03T12:22:43;5.10;99.90
29571;DHT22;16814;52.118;11.436;2023-03-03T12:25:28;5.10;99.90
29571;DHT22;16814;52.118;11.436;2023-03-03T12:28:15;5.10;99.90
29571;DHT22;16814;52.118;11.436;2023-03-03T12:31:20;5.30;99.90
29571;DHT22;16814;52.118;11.436;2023-03-03T12:36:28;5.30;99.90
29571;DHT22;16814;52.118;11.436;2023-03-03T12:39:21;5.40;99.90
29571;DHT22;16814;52.118;11.436;2023-03-03T12:44:45;5.40;99.90
29571;DHT22;16814;52.118;11.436;2023-03-03T12:47:23;5.40;99.90
29571;DHT22;16814;52.118;11.436;2023-03-03T12:53:05;5.50;99.90
29571;DHT22;16814;52.118;11.436;2023-03-03T12:58:54;5.50;99.90
29571;DHT22;16814;52.118;11.436;2023-03-03T13:01:51;5.50;99.90
29571;DHT22;16814;52.118;11.436;2023-03-03T13:13:17;5.50;99.90
29571;DHT22;16814;52.118;11.436;2023-03-03T13:16:05;5.50;99.90
29571;DHT22;16814;52.118;11.436;2023-03-03T13:19:03;5.70;99.90
29571;DHT22;16814;52.118;11.436;2023-03-03T13:21:47;6.00;99.90
29571;DHT22;16814;52.118;11.436;2023-03-03T13:24:32;6.20;99.90
29571;DHT22;16814;52.118;11.436;2023-03-03T13:27:14;6.40;99.90
29571;DHT22;16814;52.118;11.436;2023-03-03T13:32:27;6.20;99.90
29571;DHT22;16814;52.118;11.436;2023-03-03T13:35:06;6.10;99.90
29571;DHT22;16814;52.118;11.436;2023-03-03T13:37:41;6.20;99.90
29571;DHT22;16814;52.118;11.436;2023-03-03T13:40:42;6.10;99.90
29571;DHT22;16814;52.118;11.436;2023-03-03T13:43:11;6.10;99.90
29571;DHT22;16814;52.118;11.436;2023-03-03T13:46:02;6.10;99.90
29571;DHT22;16814;52.118;11.436;2023-03-03T13:48:57;6.20;99.90
29571;DHT22;16814;52.118;11.436;2023-03-03T13:51:43;6.30;99.90
29571;DHT22;16814;52.118;11.436;2023-03-03T13:54:21;6.10;99.90
29571;DHT22;16814;52.118;11.436;2023-03-03T13:59:56;6.20;99.90
29571;DHT22;16814;52.118;11.436;2023-03-03T14:08:15;6.30;99.90
29571;DHT22;16814;52.118;11.436;2023-03-03T14:16:18;6.20;99.90
29571;DHT22;16814;52.118;11.436;2023-03-03T14:18:56;6.30;99.90
29571;DHT22;16814;52.118;11.436;2023-03-03T14:21:42;6.30;99.90
29571;DHT22;16814;52.118;11.436;2023-03-03T14:24:18;6.30;99.90
29571;DHT22;16814;52.118;11.436;2023-03-03T14:26:55;6.20;99.90
29571;DHT22;16814;52.118;11.436;2023-03-03T14:29:47;6.00;99.90
29571;DHT22;16814;52.118;11.436;2023-03-03T14:32:26;5.90;99.90
29571;DHT22;16814;52.118;11.436;2023-03-03T14:34:57;5.90;99.90
29571;DHT22;16814;52.118;11.436;2023-03-03T14:37:26;6.00;99.90
29571;DHT22;16814;52.118;11.436;2023-03-03T14:40:21;5.90;99.90
29571;DHT22;16814;52.118;11.436;2023-03-03T14:45:35;5.80;99.90
29571;DHT22;16814;52.118;11.436;2023-03-03T14:48:22;6.00;99.90
29571;DHT22;16814;52.118;11.436;2023-03-03T14:50:51;6.10;99.90
29571;DHT22;16814;52.118;11.436;2023-03-03T14:55:44;6.00;99.90
29571;DHT22;16814;52.118;11.436;2023-03-03T15:01:13;5.90;99.90
29571;DHT22;16814;52.118;11.436;2023-03-03T15:06:48;5.70;99.90
29571;DHT22;16814;52.118;11.436;2023-03-03T15:11:53;5.60;99.90
29571;DHT22;16814;52.118;11.436;2023-03-03T15:14:24;5.60;99.90
29571;DHT22;16814;52.118;11.436;2023-03-03T15:16:50;5.70;99.90
29571;DHT22;16814;52.118;11.436;2023-03-03T15:24:38;5.40;99.90
29571;DHT22;16814;52.118;11.436;2023-03-03T15:27:38;5.30;99.90
29571;DHT22;16814;52.118;11.436;2023-03-03T15:30:29;5.20;99.90
29571;DHT22;16814;52.118;11.436;2023-03-03T15:33:19;5.20;99.90
29571;DHT22;16814;52.118;11.436;2023-03-03T15:35:56;5.10;99.90
29571;DHT22;16814;52.118;11.436;2023-03-03T15:38:37;5.10;99.90
29571;DHT22;16814;52.118;11.436;2023-03-03T15:43:42;5.00;99.90
29571;DHT22;16814;52.118;11.436;2023-03-03T15:46:20;5.00;99.90
29571;DHT22;16814;52.118;11.436;2023-03-03T15:54:34;4.80;99.90
29571;DHT22;16814;52.118;11.436;2023-03-03T15:57:07;4.80;99.90
29571;DHT22;16814;52.118;11.436;2023-03-03T16:05:21;4.50;99.90
29571;DHT22;16814;52.118;11.436;2023-03-03T16:08:08;4.40;99.90
29571;DHT22;16814;52.118;11.436;2023-03-03T16:11:06;4.40;99.90
29571;DHT22;16814;52.118;11.436;2023-03-03T16:16:44;4.30;99.90
29571;DHT22;16814;52.118;11.436;2023-03-03T16:22:38;4.20;99.90
29571;DHT22;16814;52.118;11.436;2023-03-03T16:33:33;3.70;99.90
29571;DHT22;16814;52.118;11.436;2023-03-03T16:36:20;3.70;99.90
29571;DHT22;16814;52.118;11.436;2023-03-03T16:42:02;3.50;99.90
29571;DHT22;16814;52.118;11.436;2023-03-03T16:49:52;3.10;99.90
29571;DHT22;16814;52.118;11.436;2023-03-03T16:52:24;2.90;99.90
29571;DHT22;16814;52.118;11.436;2023-03-03T16:54:56;2.90;99.90
29571;DHT22;16814;52.118;11.436;2023-03-03T16:57:26;2.70;99.90
29571;DHT22;16814;52.118;11.436;2023-03-03T17:05:50;2.30;99.90
29571;DHT22;16814;52.118;11.436;2023-03-03T17:08:42;2.20;99.90
29571;DHT22;16814;52.118;11.436;2023-03-03T17:14:01;2.10;99.90
29571;DHT22;16814;52.118;11.436;2023-03-03T17:19:16;1.90;99.90
29571;DHT22;16814;52.118;11.436;2023-03-03T17:22:09;2.00;99.90
29571;DHT22;16814;52.118;11.436;2023-03-03T17:30:44;2.30;99.90
29571;DHT22;16814;52.118;11.436;2023-03-03T17:33:53;2.40;99.90
29571;DHT22;16814;52.118;11.436;2023-03-03T17:40:05;2.40;99.90
29571;DHT22;16814;52.118;11.436;2023-03-03T17:42:49;2.40;99.90
29571;DHT22;16814;52.118;11.436;2023-03-03T17:45:18;2.30;99.90
29571;DHT22;16814;52.118;11.436;2023-03-03T17:48:06;2.30;99.90
29571;DHT22;16814;52.118;11.436;2023-03-03T17:53:58;2.30;99.90
29571;DHT22;16814;52.118;11.436;2023-03-03T18:04:18;2.30;99.90
29571;DHT22;16814;52.118;11.436;2023-03-03T18:10:05;2.30;99.90
29571;DHT22;16814;52.118;11.436;2023-03-03T18:22:54;2.10;99.90
29571;DHT22;16814;52.118;11.436;2023-03-03T18:25:56;2.10;99.90
29571;DHT22;16814;52.118;11.436;2023-03-03T18:28:43;2.00;99.90
29571;DHT22;16814;52.118;11.436;2023-03-03T18:31:25;1.90;99.90
29571;DHT22;16814;52.118;11.436;2023-03-03T18:36:53;1.90;99.90
29571;DHT22;16814;52.118;11.436;2023-03-03T18:44:41;1.70;99.90
29571;DHT22;16814;52.118;11.436;2023-03-03T18:47:07;1.70;99.90
29571;DHT22;16814;52.118;11.436;2023-03-03T18:52:34;1.60;99.90
29571;DHT22;16814;52.118;11.436;2023-03-03T18:57:34;1.50;99.90
29571;DHT22;16814;52.118;11.436;2023-03-03T19:00:22;1.50;99.90
29571;DHT22;16814;52.118;11.436;2023-03-03T19:02:54;1.30;99.90
29571;DHT22;16814;52.118;11.436;2023-03-03T19:05:35;1.30;99.90
29571;DHT22;16814;52.118;11.436;2023-03-03T19:08:03;1.30;99.90
29571;DHT22;16814;52.118;11.436;2023-03-03T19:10:50;1.20;99.90
29571;DHT22;16814;52.118;11.436;2023-03-03T19:16:25;0.90;99.90
29571;DHT22;16814;52.118;11.436;2023-03-03T19:18:57;0.90;99.90
29571;DHT22;16814;52.118;11.436;2023-03-03T19:21:32;0.90;99.90
29571;DHT22;16814;52.118;11.436;2023-03-03T19:24:02;1.00;99.90
29571;DHT22;16814;52.118;11.436;2023-03-03T19:29:39;1.10;99.90
29571;DHT22;16814;52.118;11.436;2023-03-03T19:32:19;1.30;99.90
29571;DHT22;16814;52.118;11.436;2023-03-03T19:37:54;1.40;99.90
29571;DHT22;16814;52.118;11.436;2023-03-03T19:43:25;1.40;99.90
29571;DHT22;16814;52.118;11.436;2023-03-03T19:57:01;1.40;99.90
29571;DHT22;16814;52.118;11.436;2023-03-03T19:59:35;1.50;99.90
29571;DHT22;16814;52.118;11.436;2023-03-03T20:15:49;1.60;99.90
29571;DHT22;16814;52.118;11.436;2023-03-03T20:21:57;1.80;99.90
29571;DHT22;16814;52.118;11.436;2023-03-03T20:27:19;1.80;99.90
29571;DHT22;16814;52.118;11.436;2023-03-03T20:39:01;2.00;99.90
29571;DHT22;16814;52.118;11.436;2023-03-03T20:44:35;1.90;99.90
29571;DHT22;16814;52.118;11.436;2023-03-03T20:47:52;2.00;99.90
29571;DHT22;16814;52.118;11.436;2023-03-03T20:50:12;2.10;99.90
29571;DHT22;16814;52.118;11.436;2023-03-03T20:53:15;2.10;99.90
29571;DHT22;16814;52.118;11.436;2023-03-03T20:55:56;2.00;99.90
29571;DHT22;16814;52.118;11.436;2023-03-03T21:01:16;2.00;99.90
29571;DHT22;16814;52.118;11.436;2023-03-03T21:03:45;2.00;99.90
29571;DHT22;16814;52.118;11.436;2023-03-03T21:06:14;2.10;99.90
29571;DHT22;16814;52.118;11.436;2023-03-03T21:08:49;2.20;99.90
29571;DHT22;16814;52.118;11.436;2023-03-03T21:11:41;2.30;99.90
29571;DHT22;16814;52.118;11.436;2023-03-03T21:14:19;2.30;99.90
29571;DHT22;16814;52.118;11.436;2023-03-03T21:16:45;2.40;99.90
29571;DHT22;16814;52.118;11.436;2023-03-03T21:19:22;2.40;99.90
29571;DHT22;16814;52.118;11.436;2023-03-03T21:21:47;2.40;99.90